createdAt,value
2022-10-20T00:02:25.622Z,25.09
2022-10-20T00:04:57.309Z,25.06
2022-10-20T00:07:28.222Z,25.06
2022-10-20T00:10:01.542Z,25.04
2022-10-20T00:12:29.427Z,25.04
2022-10-20T00:14:57.211Z,25.05
2022-10-20T00:17:30.555Z,25.03
2022-10-20T00:20:00.699Z,25.02
2022-10-20T00:22:31.377Z,25.02
2022-10-20T00:24:59.378Z,25.01
2022-10-20T00:27:32.834Z,25.00
2022-10-20T00:30:00.543Z,25.03
2022-10-20T00:32:29.843Z,25.04
2022-10-20T00:34:57.865Z,25.02
2022-10-20T00:37:25.551Z,25.05
2022-10-20T00:39:55.702Z,25.01
2022-10-20T00:42:26.280Z,24.99
2022-10-20T00:45:00.692Z,24.98
2022-10-20T00:47:28.336Z,25.00
2022-10-20T00:49:59.594Z,25.01
2022-10-20T00:52:27.637Z,25.03
2022-10-20T00:55:01.805Z,25.00
2022-10-20T00:57:32.015Z,25.01
2022-10-20T00:59:59.705Z,24.97
2022-10-20T01:02:35.756Z,24.96
2022-10-20T01:05:07.636Z,24.99
2022-10-20T01:07:35.749Z,25.02
2022-10-20T01:10:10.755Z,25.11
2022-10-20T01:12:50.518Z,25.20
2022-10-20T01:15:35.117Z,25.24
2022-10-20T01:18:20.870Z,25.30
2022-10-20T01:21:04.098Z,25.32
2022-10-20T01:24:25.930Z,25.39
2022-10-20T01:27:22.000Z,25.40
2022-10-20T01:30:03.615Z,25.40
2022-10-20T01:32:57.099Z,25.40
2022-10-20T01:35:45.476Z,25.46
2022-10-20T01:38:41.324Z,25.37
2022-10-20T01:41:12.354Z,25.28
2022-10-20T01:43:47.452Z,25.26
2022-10-20T01:46:20.299Z,25.24
2022-10-20T01:48:49.019Z,25.16
2022-10-20T01:51:19.138Z,25.17
2022-10-20T01:53:46.927Z,25.09
2022-10-20T01:56:28.469Z,25.10
2022-10-20T01:59:04.773Z,25.05
2022-10-20T02:01:44.726Z,25.08
2022-10-20T02:04:16.709Z,25.06
2022-10-20T02:07:09.299Z,25.04
2022-10-20T02:09:43.584Z,25.04
2022-10-20T02:12:25.557Z,25.03
2022-10-20T02:14:58.668Z,24.94
2022-10-20T02:17:30.231Z,24.90
2022-10-20T02:19:58.764Z,24.89
2022-10-20T02:22:30.642Z,24.89
2022-10-20T02:25:04.654Z,24.92
2022-10-20T02:27:39.140Z,24.92
2022-10-20T02:30:12.958Z,24.96
2022-10-20T02:32:49.412Z,24.94
2022-10-20T02:35:26.382Z,24.90
2022-10-20T02:37:54.409Z,24.91
2022-10-20T02:40:24.940Z,24.85
2022-10-20T02:42:58.192Z,24.88
2022-10-20T02:45:31.340Z,24.90
2022-10-20T02:48:03.303Z,24.89
2022-10-20T02:50:34.615Z,24.89
2022-10-20T02:53:08.292Z,24.87
2022-10-20T02:55:38.305Z,24.87
2022-10-20T02:58:06.524Z,24.88
2022-10-20T03:00:36.885Z,24.86
2022-10-20T03:03:04.609Z,24.86
2022-10-20T03:05:32.363Z,24.86
2022-10-20T03:08:07.018Z,24.82
2022-10-20T03:10:37.646Z,24.79
2022-10-20T03:13:10.404Z,24.78
2022-10-20T03:15:40.320Z,24.83
2022-10-20T03:18:10.328Z,24.78
2022-10-20T03:20:39.164Z,24.74
2022-10-20T03:23:06.955Z,24.75
2022-10-20T03:25:34.664Z,24.74
2022-10-20T03:28:02.451Z,24.75
2022-10-20T03:30:30.831Z,24.76
2022-10-20T03:32:58.708Z,24.73
2022-10-20T03:35:31.334Z,24.70
2022-10-20T03:37:59.276Z,24.75
2022-10-20T03:40:29.532Z,24.75
2022-10-20T03:42:57.350Z,24.73
2022-10-20T03:45:30.389Z,24.71
2022-10-20T03:48:02.709Z,24.67
2022-10-20T03:50:33.772Z,24.66
2022-10-20T03:53:13.723Z,24.63
2022-10-20T03:55:45.159Z,24.62
2022-10-20T03:58:15.265Z,24.66
2022-10-20T04:00:43.156Z,24.65
2022-10-20T04:03:13.844Z,24.68
2022-10-20T04:05:41.753Z,24.69
2022-10-20T04:08:12.169Z,24.69
2022-10-20T04:10:46.145Z,24.69
2022-10-20T04:13:16.252Z,24.67
2022-10-20T04:15:51.819Z,24.66
2022-10-20T04:18:19.488Z,24.67
2022-10-20T04:20:52.979Z,24.63
2022-10-20T04:23:20.961Z,24.62
2022-10-20T04:25:49.908Z,24.64
2022-10-20T04:28:26.134Z,24.67
2022-10-20T04:30:54.739Z,24.64
2022-10-20T04:33:22.306Z,24.65
2022-10-20T04:36:04.238Z,24.63
2022-10-20T04:38:38.327Z,24.58
2022-10-20T04:41:06.478Z,24.58
2022-10-20T04:43:35.342Z,24.58
2022-10-20T04:46:08.665Z,24.60
2022-10-20T04:48:42.585Z,24.58
2022-10-20T04:51:11.774Z,24.62
2022-10-20T04:53:45.229Z,24.65
2022-10-20T04:56:19.344Z,24.61
2022-10-20T04:58:54.307Z,24.62
2022-10-20T05:01:24.208Z,24.62
2022-10-20T05:03:52.376Z,24.58
2022-10-20T05:06:30.461Z,24.59
2022-10-20T05:09:03.784Z,24.59
2022-10-20T05:11:40.862Z,24.57
2022-10-20T05:14:12.275Z,24.55
2022-10-20T05:16:40.451Z,24.53
2022-10-20T05:19:14.774Z,24.52
2022-10-20T05:21:52.776Z,24.57
2022-10-20T05:24:30.496Z,24.58
2022-10-20T05:27:35.176Z,24.54
2022-10-20T05:30:06.720Z,24.55
2022-10-20T05:32:35.071Z,24.55
2022-10-20T05:35:07.103Z,24.55
2022-10-20T05:37:41.520Z,24.57
2022-10-20T05:40:14.034Z,24.57
2022-10-20T05:42:47.804Z,24.58
2022-10-20T05:45:18.269Z,24.58
2022-10-20T05:47:54.997Z,24.56
2022-10-20T05:50:25.735Z,24.58
2022-10-20T05:52:59.647Z,24.58
2022-10-20T05:55:32.138Z,24.78
2022-10-20T05:57:59.838Z,25.23
2022-10-20T06:00:31.441Z,25.44
2022-10-20T06:03:00.656Z,25.53
2022-10-20T06:05:32.250Z,25.53
2022-10-20T06:08:00.471Z,25.60
2022-10-20T06:10:31.136Z,25.45
2022-10-20T06:12:59.153Z,25.45
2022-10-20T06:15:30.171Z,25.96
2022-10-20T06:17:57.841Z,26.52
2022-10-20T06:20:27.943Z,27.28
2022-10-20T06:23:00.469Z,28.23
2022-10-20T06:25:28.309Z,28.55
2022-10-20T06:27:55.642Z,28.46
2022-10-20T06:30:25.366Z,28.37
2022-10-20T06:32:58.669Z,28.06
2022-10-20T06:35:26.188Z,27.87
2022-10-20T06:37:53.489Z,27.63
2022-10-20T06:40:25.414Z,27.51
2022-10-20T06:45:31.118Z,28.79
2022-10-20T06:47:58.536Z,29.49
2022-10-20T06:50:28.539Z,29.42
2022-10-20T06:53:02.638Z,29.25
2022-10-20T06:55:33.094Z,29.17
2022-10-20T06:58:08.231Z,28.73
2022-10-20T07:00:42.612Z,28.82
2022-10-20T07:03:15.348Z,28.49
2022-10-20T07:05:45.131Z,28.19
2022-10-20T07:08:15.552Z,28.21
2022-10-20T07:10:48.792Z,28.08
2022-10-20T07:13:18.489Z,27.94
2022-10-20T07:15:55.926Z,27.89
2022-10-20T07:18:27.557Z,27.89
2022-10-20T07:21:07.985Z,27.96
2022-10-20T07:23:36.613Z,28.34
2022-10-20T07:26:17.710Z,28.54
2022-10-20T07:28:54.809Z,28.44
2022-10-20T07:31:38.047Z,28.24
2022-10-20T07:34:31.267Z,27.91
2022-10-20T07:37:01.678Z,27.89
2022-10-20T07:39:35.044Z,28.29
2022-10-20T07:42:04.903Z,28.59
2022-10-20T07:44:38.856Z,28.84
2022-10-20T07:47:09.334Z,29.21
2022-10-20T07:49:44.240Z,29.25
2022-10-20T07:52:16.712Z,29.27
2022-10-20T07:54:47.575Z,28.71
2022-10-20T07:57:18.586Z,27.94
2022-10-20T07:59:49.325Z,27.32
2022-10-20T08:02:21.069Z,26.91
2022-10-20T08:04:49.232Z,26.68
2022-10-20T08:07:20.731Z,26.63
2022-10-20T08:09:51.982Z,26.50
2022-10-20T08:12:23.075Z,26.14
2022-10-20T08:14:53.950Z,25.90
2022-10-20T08:17:32.677Z,25.95
2022-10-20T08:22:55.685Z,25.82
2022-10-20T08:25:26.800Z,25.83
2022-10-20T08:30:33.778Z,25.68
2022-10-20T08:33:11.124Z,25.61
2022-10-20T08:35:49.263Z,25.54
2022-10-20T08:38:17.052Z,25.50
2022-10-20T08:40:53.205Z,25.50
2022-10-20T08:43:23.457Z,25.46
2022-10-20T08:45:57.127Z,25.48
2022-10-20T08:48:33.898Z,25.48
2022-10-20T08:51:16.724Z,25.46
2022-10-20T08:53:49.608Z,25.48
2022-10-20T08:56:23.307Z,25.42
2022-10-20T08:58:59.613Z,25.45
2022-10-20T09:01:35.457Z,25.46
2022-10-20T09:04:30.211Z,25.42
2022-10-20T09:07:01.860Z,25.42
2022-10-20T09:09:34.121Z,25.37
2022-10-20T09:12:08.378Z,25.41
2022-10-20T09:14:40.649Z,25.37
2022-10-20T09:17:19.059Z,25.31
2022-10-20T09:19:54.660Z,25.33
2022-10-20T09:22:34.904Z,25.33
2022-10-20T09:25:22.366Z,25.36
2022-10-20T09:28:01.461Z,25.46
2022-10-20T09:30:29.207Z,25.45
2022-10-20T09:33:29.153Z,25.47
2022-10-20T09:36:09.206Z,25.42
2022-10-20T09:38:47.917Z,25.40
2022-10-20T09:41:23.829Z,25.39
2022-10-20T09:44:00.988Z,25.42
2022-10-20T09:46:37.620Z,25.41
2022-10-20T09:49:10.744Z,25.39
2022-10-20T09:51:38.807Z,25.39
2022-10-20T09:54:17.009Z,25.43
2022-10-20T09:56:50.722Z,25.49
2022-10-20T09:59:40.495Z,25.45
2022-10-20T10:02:20.161Z,25.46
2022-10-20T10:05:14.152Z,25.46
2022-10-20T10:07:45.224Z,25.49
2022-10-20T10:10:27.793Z,25.54
2022-10-20T10:13:04.186Z,25.45
2022-10-20T10:15:39.218Z,25.53
2022-10-20T10:18:23.217Z,25.52
2022-10-20T10:21:06.472Z,25.52
2022-10-20T10:23:36.918Z,25.51
2022-10-20T10:26:32.974Z,25.49
2022-10-20T10:29:04.118Z,25.50
2022-10-20T10:31:33.599Z,25.50
2022-10-20T10:34:13.683Z,25.69
2022-10-20T10:36:41.266Z,25.61
2022-10-20T10:39:14.834Z,25.58
2022-10-20T10:42:00.914Z,25.74
2022-10-20T10:44:39.271Z,25.73
2022-10-20T10:47:49.240Z,25.65
2022-10-20T10:50:29.791Z,25.75
2022-10-20T10:53:16.203Z,25.87
2022-10-20T10:59:05.344Z,25.91
2022-10-20T11:02:11.672Z,25.93
2022-10-20T11:05:00.117Z,25.92
2022-10-20T11:08:02.206Z,25.80
2022-10-20T11:10:56.508Z,25.87
2022-10-20T11:13:47.868Z,25.80
2022-10-20T11:16:36.917Z,25.69
2022-10-20T11:19:33.335Z,25.77
2022-10-20T11:22:31.334Z,25.83
2022-10-20T11:25:11.124Z,25.82
2022-10-20T11:27:45.238Z,25.82
2022-10-20T11:30:18.423Z,25.71
2022-10-20T11:33:21.312Z,25.69
2022-10-20T11:35:56.948Z,25.80
2022-10-20T11:38:50.062Z,25.83
2022-10-20T11:41:49.971Z,25.73
2022-10-20T11:44:41.186Z,25.64
2022-10-20T11:47:18.923Z,25.62
2022-10-20T11:49:52.337Z,25.63
2022-10-20T11:52:45.188Z,25.60
2022-10-20T11:55:26.456Z,25.66
2022-10-20T11:58:12.807Z,25.79
2022-10-20T12:01:00.045Z,25.85
2022-10-20T12:04:02.590Z,25.70
2022-10-20T12:06:54.141Z,25.63
2022-10-20T12:09:39.903Z,25.87
2022-10-20T12:12:42.162Z,25.86
2022-10-20T12:15:25.466Z,25.67
2022-10-20T12:18:33.942Z,25.84
2022-10-20T12:21:09.563Z,25.73
2022-10-20T12:23:46.110Z,25.67
2022-10-20T12:26:38.752Z,25.75
2022-10-20T12:29:30.454Z,25.73
2022-10-20T12:32:26.091Z,25.78
2022-10-20T12:35:00.414Z,25.77
2022-10-20T12:37:42.145Z,25.74
2022-10-20T12:40:12.737Z,25.82
2022-10-20T12:42:47.560Z,25.74
2022-10-20T12:45:24.192Z,25.78
2022-10-20T12:48:01.231Z,25.89
2022-10-20T12:50:39.435Z,25.74
2022-10-20T12:53:22.979Z,25.72
2022-10-20T12:56:04.879Z,25.77
2022-10-20T12:58:56.589Z,25.78
2022-10-20T13:01:29.168Z,25.73
2022-10-20T13:04:01.728Z,25.85
2022-10-20T13:06:35.485Z,25.91
2022-10-20T13:09:11.710Z,25.96
2022-10-20T13:11:56.112Z,25.95
2022-10-20T13:15:06.957Z,25.89
2022-10-20T13:18:01.850Z,25.92
2022-10-20T13:20:57.324Z,25.91
2022-10-20T13:23:40.009Z,25.94
2022-10-20T13:26:20.271Z,25.95
2022-10-20T13:28:54.918Z,25.93
2022-10-20T13:31:53.358Z,25.99
2022-10-20T13:34:39.428Z,25.96
2022-10-20T13:37:37.120Z,25.83
2022-10-20T13:40:24.148Z,25.85
2022-10-20T13:43:22.291Z,25.92
2022-10-20T13:46:01.116Z,25.93
2022-10-20T13:48:44.391Z,25.94
2022-10-20T13:51:21.546Z,25.97
2022-10-20T13:53:59.737Z,25.96
2022-10-20T13:56:43.036Z,25.94
2022-10-20T14:02:03.898Z,25.93
2022-10-20T14:04:37.442Z,25.96
2022-10-20T14:07:13.352Z,25.92
2022-10-20T14:09:51.439Z,25.92
2022-10-20T14:12:31.440Z,25.84
2022-10-20T14:15:08.699Z,25.83
2022-10-20T14:17:44.484Z,25.75
2022-10-20T14:20:20.739Z,25.76
2022-10-20T14:22:54.458Z,25.82
2022-10-20T14:25:30.723Z,25.79
2022-10-20T14:28:05.137Z,25.86
2022-10-20T14:30:41.099Z,26.30
2022-10-20T14:33:20.714Z,26.46
2022-10-20T14:35:54.841Z,26.98
2022-10-20T14:38:44.553Z,27.22
2022-10-20T14:41:26.483Z,27.81
2022-10-20T14:44:06.124Z,28.19
2022-10-20T14:46:41.810Z,28.21
2022-10-20T14:49:19.372Z,28.77
2022-10-20T14:52:21.745Z,28.92
2022-10-20T14:54:52.588Z,28.92
2022-10-20T14:57:23.301Z,29.09
2022-10-20T15:00:03.541Z,28.90
2022-10-20T15:02:47.781Z,29.71
2022-10-20T15:05:44.591Z,29.44
2022-10-20T15:08:26.510Z,30.17
2022-10-20T15:10:58.697Z,30.31
2022-10-20T15:13:32.786Z,29.65
2022-10-20T15:16:08.192Z,30.58
2022-10-20T15:18:39.248Z,30.39
2022-10-20T15:21:12.015Z,30.40
2022-10-20T15:23:42.536Z,30.15
2022-10-20T15:26:14.316Z,30.12
2022-10-20T15:28:52.715Z,30.23
2022-10-20T15:31:25.733Z,30.18
2022-10-20T15:33:57.198Z,29.58
2022-10-20T15:36:29.795Z,29.46
2022-10-20T15:38:57.902Z,29.34
2022-10-20T15:41:34.656Z,28.68
2022-10-20T15:44:19.727Z,28.21
2022-10-20T15:46:50.703Z,27.74
2022-10-20T15:49:34.273Z,27.85
2022-10-20T15:52:06.129Z,27.99
2022-10-20T15:54:42.014Z,27.72
2022-10-20T15:57:15.363Z,27.84
2022-10-20T15:59:50.134Z,27.77
2022-10-20T16:02:21.290Z,27.84
2022-10-20T16:04:52.667Z,28.37
2022-10-20T16:07:21.551Z,28.99
2022-10-20T16:09:49.968Z,29.15
2022-10-20T16:12:21.024Z,29.60
2022-10-20T16:14:54.447Z,29.91
2022-10-20T16:17:28.548Z,30.05
2022-10-20T16:19:59.684Z,30.05
2022-10-20T16:22:30.278Z,30.30
2022-10-20T16:25:01.514Z,30.01
2022-10-20T16:27:30.920Z,29.24
2022-10-20T16:30:03.729Z,28.77
2022-10-20T16:32:35.461Z,28.11
2022-10-20T16:35:07.450Z,27.59
2022-10-20T16:37:41.113Z,27.43
2022-10-20T16:40:14.366Z,27.19
2022-10-20T16:42:50.753Z,27.05
2022-10-20T16:45:18.710Z,26.82
2022-10-20T16:47:48.902Z,26.77
2022-10-20T16:50:16.968Z,26.64
2022-10-20T16:52:50.137Z,26.55
2022-10-20T16:55:22.371Z,26.56
2022-10-20T16:57:55.975Z,26.44
2022-10-20T17:00:27.155Z,26.37
2022-10-20T17:02:57.789Z,26.21
2022-10-20T17:05:27.583Z,26.25
2022-10-20T17:07:58.575Z,26.21
2022-10-20T17:10:30.761Z,26.14
2022-10-20T17:13:01.807Z,26.16
2022-10-20T17:15:35.492Z,26.08
2022-10-20T17:18:03.484Z,26.09
2022-10-20T17:20:39.777Z,26.06
2022-10-20T17:23:07.607Z,26.06
2022-10-20T17:25:41.598Z,26.01
2022-10-20T17:28:12.009Z,25.97
2022-10-20T17:30:46.531Z,25.92
2022-10-20T17:33:14.232Z,25.87
2022-10-20T17:35:47.689Z,25.91
2022-10-20T17:38:19.927Z,25.88
2022-10-20T17:40:50.142Z,25.87
2022-10-20T17:43:19.240Z,25.84
2022-10-20T17:46:08.147Z,25.84
2022-10-20T17:48:36.974Z,25.83
2022-10-20T17:51:10.654Z,25.80
2022-10-20T17:53:41.051Z,25.77
2022-10-20T17:56:13.641Z,25.74
2022-10-20T17:58:46.238Z,25.73
2022-10-20T18:01:17.922Z,25.69
2022-10-20T18:03:46.563Z,25.66
2022-10-20T18:06:25.664Z,25.68
2022-10-20T18:08:58.290Z,25.69
2022-10-20T18:11:33.334Z,25.71
2022-10-20T18:14:01.264Z,25.69
2022-10-20T18:16:33.961Z,25.72
2022-10-20T18:19:04.425Z,25.73
2022-10-20T18:21:37.504Z,25.75
2022-10-20T18:24:07.235Z,25.73
2022-10-20T18:26:36.903Z,25.74
2022-10-20T18:29:06.555Z,25.79
2022-10-20T18:31:36.165Z,25.86
2022-10-20T18:34:07.841Z,25.82
2022-10-20T18:36:40.375Z,25.79
2022-10-20T18:39:13.142Z,25.77
2022-10-20T18:41:43.147Z,25.81
2022-10-20T18:44:16.680Z,25.78
2022-10-20T18:46:44.365Z,25.77
2022-10-20T18:49:16.677Z,25.74
2022-10-20T18:52:03.111Z,25.76
2022-10-20T18:54:33.323Z,25.72
2022-10-20T18:57:00.985Z,25.79
2022-10-20T18:59:30.978Z,25.74
2022-10-20T19:01:58.894Z,25.71
2022-10-20T19:04:28.813Z,25.72
2022-10-20T19:06:56.517Z,25.70
2022-10-20T19:09:26.413Z,25.71
2022-10-20T19:11:54.303Z,25.64
2022-10-20T19:14:22.735Z,25.68
2022-10-20T19:16:53.404Z,25.69
2022-10-20T19:19:23.297Z,25.65
2022-10-20T19:21:53.394Z,25.66
2022-10-20T19:24:23.307Z,25.65
2022-10-20T19:27:24.514Z,25.58
2022-10-20T19:29:44.921Z,25.60
2022-10-20T19:32:12.413Z,25.57
2022-10-20T19:34:41.605Z,25.57
2022-10-20T19:37:09.905Z,25.55
2022-10-20T19:39:42.328Z,25.61
2022-10-20T19:42:10.854Z,25.59
2022-10-20T19:44:38.705Z,25.56
2022-10-20T19:47:08.005Z,25.51
2022-10-20T19:49:38.380Z,25.54
2022-10-20T19:52:07.665Z,25.57
2022-10-20T19:54:38.221Z,25.60
2022-10-20T19:57:09.397Z,25.67
2022-10-20T19:59:36.879Z,25.60
2022-10-20T20:02:06.698Z,25.59
2022-10-20T20:04:34.242Z,25.55
2022-10-20T20:07:04.789Z,25.56
2022-10-20T20:09:33.435Z,25.48
2022-10-20T20:12:01.111Z,25.51
2022-10-20T20:14:33.982Z,25.57
2022-10-20T20:17:01.707Z,25.54
2022-10-20T20:19:31.878Z,25.53
2022-10-20T20:21:59.411Z,25.57
2022-10-20T20:24:27.016Z,25.53
2022-10-20T20:26:55.149Z,25.49
2022-10-20T20:29:25.025Z,25.51
2022-10-20T20:31:52.968Z,25.53
2022-10-20T20:34:20.870Z,25.56
2022-10-20T20:36:49.298Z,25.54
2022-10-20T20:39:17.008Z,25.59
2022-10-20T20:41:44.635Z,25.53
2022-10-20T20:44:15.570Z,25.56
2022-10-20T20:46:46.167Z,25.50
2022-10-20T20:49:14.112Z,25.48
2022-10-20T20:51:44.094Z,25.53
2022-10-20T20:54:13.921Z,25.49
2022-10-20T20:56:43.120Z,25.47
2022-10-20T20:59:10.649Z,25.48
2022-10-20T21:01:38.340Z,25.48
2022-10-20T21:04:10.278Z,25.51
2022-10-20T21:07:00.706Z,25.50
2022-10-20T21:09:27.131Z,25.53
2022-10-20T21:11:54.599Z,25.56
2022-10-20T21:14:22.879Z,25.52
2022-10-20T21:16:58.263Z,25.54
2022-10-20T21:19:25.802Z,25.58
2022-10-20T21:22:01.263Z,25.51
2022-10-20T21:24:29.415Z,25.49
2022-10-20T21:26:57.241Z,25.51
2022-10-20T21:29:25.237Z,25.53
2022-10-20T21:31:55.084Z,25.52
2022-10-20T21:34:22.511Z,25.51
2022-10-20T21:36:52.273Z,25.50
2022-10-20T21:39:19.891Z,25.46
2022-10-20T21:41:49.020Z,25.48
2022-10-20T21:44:16.874Z,25.49
2022-10-20T21:46:49.356Z,25.49
2022-10-20T21:49:19.991Z,25.48
2022-10-20T21:51:56.473Z,25.42
2022-10-20T21:54:29.064Z,25.47
2022-10-20T21:56:57.369Z,25.44
2022-10-20T21:59:30.203Z,25.40
2022-10-20T22:02:00.500Z,25.48
2022-10-20T22:04:29.741Z,25.42
2022-10-20T22:06:59.467Z,25.46
2022-10-20T22:09:27.444Z,25.56
2022-10-20T22:11:56.644Z,25.67
2022-10-20T22:14:24.439Z,25.70
2022-10-20T22:16:52.224Z,25.85
2022-10-20T22:19:22.372Z,25.81
2022-10-20T22:21:51.739Z,25.85
2022-10-20T22:24:22.783Z,25.78
2022-10-20T22:26:53.056Z,25.78
2022-10-20T22:29:22.445Z,25.69
2022-10-20T22:31:50.092Z,25.67
2022-10-20T22:34:17.884Z,25.61
2022-10-20T22:36:45.571Z,25.47
2022-10-20T22:39:15.416Z,25.44
2022-10-20T22:41:42.891Z,25.38
2022-10-20T22:44:13.193Z,25.46
2022-10-20T22:46:40.572Z,25.47
2022-10-20T22:49:08.349Z,25.48
2022-10-20T22:51:38.251Z,25.39
2022-10-20T22:54:05.731Z,25.45
2022-10-20T22:56:33.203Z,25.44
2022-10-20T22:59:00.581Z,25.38
2022-10-20T23:01:28.260Z,25.40
2022-10-20T23:03:55.897Z,25.38
2022-10-20T23:06:27.923Z,25.31
2022-10-20T23:08:58.759Z,25.38
2022-10-20T23:11:29.567Z,25.40
2022-10-20T23:13:57.025Z,25.36
2022-10-20T23:16:27.524Z,25.40
2022-10-20T23:18:55.302Z,25.34
2022-10-20T23:21:22.932Z,25.37
2022-10-20T23:23:53.158Z,25.40
2022-10-20T23:26:23.156Z,25.38
2022-10-20T23:28:50.860Z,25.37
2022-10-20T23:31:22.935Z,25.37
2022-10-20T23:33:55.167Z,25.38
2022-10-20T23:36:22.936Z,25.36
2022-10-20T23:38:51.274Z,25.35
2022-10-20T23:41:21.298Z,25.35
2022-10-20T23:43:48.756Z,25.37
2022-10-20T23:46:16.121Z,25.35
2022-10-20T23:48:48.344Z,25.38
2022-10-20T23:51:18.154Z,25.34
2022-10-20T23:53:45.535Z,25.38
2022-10-20T23:56:13.010Z,25.35
2022-10-20T23:58:40.478Z,25.32
